sensor_id;sensor_type;location;lat;lon;timestamp;pressure;altitude;pressure_sealevel;temperature;humidity
81680;BME280;74989;52.210;5.148;2024-01-25T00:01:33;102812.41;;;8.55;74.44
81680;BME280;74989;52.210;5.148;2024-01-25T00:04:00;102810.47;;;8.49;74.16
81680;BME280;74989;52.210;5.148;2024-01-25T00:06:27;102819.19;;;8.49;74.32
81680;BME280;74989;52.210;5.148;2024-01-25T00:08:55;102816.81;;;8.40;74.29
81680;BME280;74989;52.210;5.148;2024-01-25T00:11:21;102825.53;;;8.40;74.44
81680;BME280;74989;52.210;5.148;2024-01-25T00:13:48;102811.91;;;8.37;74.91
81680;BME280;74989;52.210;5.148;2024-01-25T00:16:15;102815.09;;;8.47;74.29
81680;BME280;74989;52.210;5.148;2024-01-25T00:18:42;102819.91;;;8.43;74.69
81680;BME280;74989;52.210;5.148;2024-01-25T00:21:09;102817.34;;;8.35;74.58
81680;BME280;74989;52.210;5.148;2024-01-25T00:23:35;102814.25;;;8.32;74.70
81680;BME280;74989;52.210;5.148;2024-01-25T00:26:04;102819.56;;;8.23;74.97
81680;BME280;74989;52.210;5.148;2024-01-25T00:28:30;102819.75;;;8.22;75.12
81680;BME280;74989;52.210;5.148;2024-01-25T00:30:58;102817.09;;;8.22;74.98
81680;BME280;74989;52.210;5.148;2024-01-25T00:33:25;102810.66;;;8.24;75.09
81680;BME280;74989;52.210;5.148;2024-01-25T00:35:52;102825.84;;;8.22;75.28
81680;BME280;74989;52.210;5.148;2024-01-25T00:38:19;102820.91;;;8.19;74.90
81680;BME280;74989;52.210;5.148;2024-01-25T00:40:46;102806.31;;;8.09;75.18
81680;BME280;74989;52.210;5.148;2024-01-25T00:43:15;102812.72;;;8.14;75.01
81680;BME280;74989;52.210;5.148;2024-01-25T00:45:42;102817.34;;;8.12;75.50
81680;BME280;74989;52.210;5.148;2024-01-25T00:48:10;102821.34;;;8.08;75.31
81680;BME280;74989;52.210;5.148;2024-01-25T00:50:38;102825.59;;;8.09;75.67
81680;BME280;74989;52.210;5.148;2024-01-25T00:53:05;102840.06;;;8.13;75.86
81680;BME280;74989;52.210;5.148;2024-01-25T00:55:33;102836.38;;;8.22;75.96
81680;BME280;74989;52.210;5.148;2024-01-25T00:58:00;102831.97;;;8.15;75.83
81680;BME280;74989;52.210;5.148;2024-01-25T01:00:29;102845.31;;;8.13;75.71
81680;BME280;74989;52.210;5.148;2024-01-25T01:02:57;102835.13;;;8.10;75.52
81680;BME280;74989;52.210;5.148;2024-01-25T01:05:24;102837.44;;;8.13;75.71
81680;BME280;74989;52.210;5.148;2024-01-25T01:07:52;102841.88;;;8.13;76.11
81680;BME280;74989;52.210;5.148;2024-01-25T01:10:19;102846.94;;;8.14;75.98
81680;BME280;74989;52.210;5.148;2024-01-25T01:12:46;102840.81;;;7.99;76.18
81680;BME280;74989;52.210;5.148;2024-01-25T01:15:12;102858.19;;;8.08;75.81
81680;BME280;74989;52.210;5.148;2024-01-25T01:17:40;102860.34;;;8.05;76.36
81680;BME280;74989;52.210;5.148;2024-01-25T01:20:08;102859.41;;;7.98;76.22
81680;BME280;74989;52.210;5.148;2024-01-25T01:22:35;102864.03;;;7.96;75.97
81680;BME280;74989;52.210;5.148;2024-01-25T01:25:01;102858.13;;;7.94;75.39
81680;BME280;74989;52.210;5.148;2024-01-25T01:27:28;102858.31;;;7.92;76.26
81680;BME280;74989;52.210;5.148;2024-01-25T01:29:55;102859.28;;;7.91;75.61
81680;BME280;74989;52.210;5.148;2024-01-25T01:32:21;102867.81;;;7.93;75.93
81680;BME280;74989;52.210;5.148;2024-01-25T01:34:49;102867.19;;;7.91;76.49
81680;BME280;74989;52.210;5.148;2024-01-25T01:37:16;102869.69;;;7.85;76.40
81680;BME280;74989;52.210;5.148;2024-01-25T01:39:43;102862.97;;;7.82;76.56
81680;BME280;74989;52.210;5.148;2024-01-25T01:42:09;102865.75;;;7.81;76.47
81680;BME280;74989;52.210;5.148;2024-01-25T01:44:36;102868.22;;;7.82;76.36
81680;BME280;74989;52.210;5.148;2024-01-25T01:47:03;102869.72;;;7.77;76.37
81680;BME280;74989;52.210;5.148;2024-01-25T01:49:30;102876.97;;;7.75;76.53
81680;BME280;74989;52.210;5.148;2024-01-25T01:51:58;102866.97;;;7.70;77.13
81680;BME280;74989;52.210;5.148;2024-01-25T01:54:25;102866.97;;;7.70;76.75
81680;BME280;74989;52.210;5.148;2024-01-25T01:56:52;102870.44;;;7.71;76.84
81680;BME280;74989;52.210;5.148;2024-01-25T01:59:20;102866.66;;;7.65;77.41
81680;BME280;74989;52.210;5.148;2024-01-25T02:01:46;102869.47;;;7.63;76.73
81680;BME280;74989;52.210;5.148;2024-01-25T02:04:13;102871.78;;;7.58;77.17
81680;BME280;74989;52.210;5.148;2024-01-25T02:06:41;102874.13;;;7.53;77.16
81680;BME280;74989;52.210;5.148;2024-01-25T02:09:10;102870.50;;;7.54;77.32
81680;BME280;74989;52.210;5.148;2024-01-25T02:11:36;102878.53;;;7.61;76.93
81680;BME280;74989;52.210;5.148;2024-01-25T02:14:03;102885.25;;;7.63;77.34
81680;BME280;74989;52.210;5.148;2024-01-25T02:16:30;102887.72;;;7.65;76.77
81680;BME280;74989;52.210;5.148;2024-01-25T02:18:57;102888.28;;;7.52;76.95
81680;BME280;74989;52.210;5.148;2024-01-25T02:21:24;102898.81;;;7.52;77.51
81680;BME280;74989;52.210;5.148;2024-01-25T02:23:52;102892.72;;;7.44;77.54
81680;BME280;74989;52.210;5.148;2024-01-25T02:26:18;102900.28;;;7.47;77.07
81680;BME280;74989;52.210;5.148;2024-01-25T02:28:45;102895.09;;;7.23;76.94
81680;BME280;74989;52.210;5.148;2024-01-25T02:31:12;102911.19;;;7.20;77.54
81680;BME280;74989;52.210;5.148;2024-01-25T02:33:38;102914.53;;;6.98;77.55
81680;BME280;74989;52.210;5.148;2024-01-25T02:36:05;102920.97;;;6.79;78.16
81680;BME280;74989;52.210;5.148;2024-01-25T02:38:32;102922.59;;;6.64;78.77
81680;BME280;74989;52.210;5.148;2024-01-25T02:41:00;102915.38;;;6.50;79.45
81680;BME280;74989;52.210;5.148;2024-01-25T02:43:27;102923.25;;;6.42;79.76
81680;BME280;74989;52.210;5.148;2024-01-25T02:45:54;102923.56;;;6.31;80.10
81680;BME280;74989;52.210;5.148;2024-01-25T02:48:19;102923.53;;;6.22;80.39
81680;BME280;74989;52.210;5.148;2024-01-25T02:50:46;102920.09;;;6.14;80.47
81680;BME280;74989;52.210;5.148;2024-01-25T02:53:13;102920.56;;;6.09;80.67
81680;BME280;74989;52.210;5.148;2024-01-25T02:55:40;102920.38;;;6.03;80.93
81680;BME280;74989;52.210;5.148;2024-01-25T02:58:08;102915.13;;;5.95;81.38
81680;BME280;74989;52.210;5.148;2024-01-25T03:00:34;102917.69;;;5.87;81.01
81680;BME280;74989;52.210;5.148;2024-01-25T03:03:01;102922.06;;;5.78;81.74
81680;BME280;74989;52.210;5.148;2024-01-25T03:05:28;102923.16;;;5.68;81.87
81680;BME280;74989;52.210;5.148;2024-01-25T03:07:54;102925.25;;;5.56;81.73
81680;BME280;74989;52.210;5.148;2024-01-25T03:10:23;102921.22;;;5.36;81.89
81680;BME280;74989;52.210;5.148;2024-01-25T03:12:49;102904.84;;;5.08;82.03
81680;BME280;74989;52.210;5.148;2024-01-25T03:15:17;102930.84;;;5.02;82.59
81680;BME280;74989;52.210;5.148;2024-01-25T03:17:44;102927.78;;;4.88;82.81
81680;BME280;74989;52.210;5.148;2024-01-25T03:20:11;102928.69;;;4.79;82.73
81680;BME280;74989;52.210;5.148;2024-01-25T03:22:37;102929.63;;;4.70;82.90
81680;BME280;74989;52.210;5.148;2024-01-25T03:25:04;102929.84;;;4.59;83.33
81680;BME280;74989;52.210;5.148;2024-01-25T03:27:31;102937.84;;;4.58;83.55
81680;BME280;74989;52.210;5.148;2024-01-25T03:29:58;102932.22;;;4.53;83.69
81680;BME280;74989;52.210;5.148;2024-01-25T03:32:26;102933.34;;;4.50;84.26
81680;BME280;74989;52.210;5.148;2024-01-25T03:34:52;102935.63;;;4.45;84.00
81680;BME280;74989;52.210;5.148;2024-01-25T03:37:19;102936.34;;;4.38;83.92
81680;BME280;74989;52.210;5.148;2024-01-25T03:39:45;102927.75;;;4.28;83.82
81680;BME280;74989;52.210;5.148;2024-01-25T03:42:12;102925.34;;;4.16;84.60
81680;BME280;74989;52.210;5.148;2024-01-25T03:44:39;102910.00;;;4.04;85.56
81680;BME280;74989;52.210;5.148;2024-01-25T03:47:07;102930.41;;;4.18;83.60
81680;BME280;74989;52.210;5.148;2024-01-25T03:49:35;102920.16;;;4.07;83.94
81680;BME280;74989;52.210;5.148;2024-01-25T03:52:02;102918.44;;;3.98;83.99
81680;BME280;74989;52.210;5.148;2024-01-25T03:54:29;102915.88;;;3.88;83.96
81680;BME280;74989;52.210;5.148;2024-01-25T03:56:56;102927.00;;;3.90;86.00
81680;BME280;74989;52.210;5.148;2024-01-25T03:59:22;102930.56;;;4.34;84.73
81680;BME280;74989;52.210;5.148;2024-01-25T04:01:49;102929.63;;;4.70;83.22
81680;BME280;74989;52.210;5.148;2024-01-25T04:04:16;102927.50;;;4.92;80.58
81680;BME280;74989;52.210;5.148;2024-01-25T04:06:44;102927.75;;;4.63;79.59
81680;BME280;74989;52.210;5.148;2024-01-25T04:09:12;102928.56;;;4.28;80.69
81680;BME280;74989;52.210;5.148;2024-01-25T04:11:40;102930.69;;;3.97;81.91
81680;BME280;74989;52.210;5.148;2024-01-25T04:14:07;102920.19;;;3.80;83.03
81680;BME280;74989;52.210;5.148;2024-01-25T04:16:34;102915.13;;;3.69;83.77
81680;BME280;74989;52.210;5.148;2024-01-25T04:19:01;102909.25;;;3.67;84.29
81680;BME280;74989;52.210;5.148;2024-01-25T04:21:27;102926.03;;;3.64;84.18
81680;BME280;74989;52.210;5.148;2024-01-25T04:23:55;102915.44;;;3.66;85.20
81680;BME280;74989;52.210;5.148;2024-01-25T04:26:22;102926.81;;;4.01;84.57
81680;BME280;74989;52.210;5.148;2024-01-25T04:28:49;102918.03;;;4.38;82.32
81680;BME280;74989;52.210;5.148;2024-01-25T04:31:16;102921.22;;;4.32;80.54
81680;BME280;74989;52.210;5.148;2024-01-25T04:33:43;102926.28;;;3.98;81.10
81680;BME280;74989;52.210;5.148;2024-01-25T04:36:09;102932.22;;;3.73;82.11
81680;BME280;74989;52.210;5.148;2024-01-25T04:38:36;102932.22;;;3.73;84.42
81680;BME280;74989;52.210;5.148;2024-01-25T04:41:04;102918.88;;;3.66;81.83
81680;BME280;74989;52.210;5.148;2024-01-25T04:43:34;102934.75;;;3.55;82.71
81680;BME280;74989;52.210;5.148;2024-01-25T04:46:01;102930.81;;;3.41;83.61
81680;BME280;74989;52.210;5.148;2024-01-25T04:48:28;102930.25;;;3.38;84.76
81680;BME280;74989;52.210;5.148;2024-01-25T04:50:56;102936.59;;;3.35;84.68
81680;BME280;74989;52.210;5.148;2024-01-25T04:53:23;102937.09;;;3.58;85.92
81680;BME280;74989;52.210;5.148;2024-01-25T04:55:50;102939.25;;;3.90;84.39
81680;BME280;74989;52.210;5.148;2024-01-25T04:58:18;102943.88;;;4.05;83.31
81680;BME280;74989;52.210;5.148;2024-01-25T05:00:44;102944.44;;;4.27;81.62
81680;BME280;74989;52.210;5.148;2024-01-25T05:03:11;102944.81;;;4.04;80.22
81680;BME280;74989;52.210;5.148;2024-01-25T05:05:38;102940.34;;;3.70;81.70
81680;BME280;74989;52.210;5.148;2024-01-25T05:08:06;102941.72;;;3.64;83.85
81680;BME280;74989;52.210;5.148;2024-01-25T05:10:32;102947.34;;;3.69;84.12
81680;BME280;74989;52.210;5.148;2024-01-25T05:12:59;102950.50;;;3.73;84.76
81680;BME280;74989;52.210;5.148;2024-01-25T05:15:27;102948.41;;;3.76;84.40
81680;BME280;74989;52.210;5.148;2024-01-25T05:17:53;102943.75;;;3.80;85.75
81680;BME280;74989;52.210;5.148;2024-01-25T05:20:20;102936.41;;;3.83;85.72
81680;BME280;74989;52.210;5.148;2024-01-25T05:22:47;102934.06;;;3.80;85.01
81680;BME280;74989;52.210;5.148;2024-01-25T05:25:14;102942.06;;;3.79;85.49
81680;BME280;74989;52.210;5.148;2024-01-25T05:27:40;102952.97;;;3.74;84.87
81680;BME280;74989;52.210;5.148;2024-01-25T05:30:08;102957.13;;;3.67;84.77
81680;BME280;74989;52.210;5.148;2024-01-25T05:32:36;102964.72;;;3.61;84.91
81680;BME280;74989;52.210;5.148;2024-01-25T05:35:04;102951.94;;;3.58;85.10
81680;BME280;74989;52.210;5.148;2024-01-25T05:37:31;102946.72;;;3.58;85.19
81680;BME280;74989;52.210;5.148;2024-01-25T05:39:58;102958.09;;;3.66;85.41
81680;BME280;74989;52.210;5.148;2024-01-25T05:42:24;102965.94;;;3.66;85.63
81680;BME280;74989;52.210;5.148;2024-01-25T05:44:51;102971.28;;;3.74;85.20
81680;BME280;74989;52.210;5.148;2024-01-25T05:47:18;102980.34;;;3.80;84.97
81680;BME280;74989;52.210;5.148;2024-01-25T05:49:46;102974.13;;;3.81;84.76
81680;BME280;74989;52.210;5.148;2024-01-25T05:52:13;102955.03;;;3.71;84.78
81680;BME280;74989;52.210;5.148;2024-01-25T05:54:40;102958.19;;;3.74;85.03
81680;BME280;74989;52.210;5.148;2024-01-25T05:57:06;102964.78;;;3.78;85.68
81680;BME280;74989;52.210;5.148;2024-01-25T05:59:33;102970.72;;;3.71;85.88
81680;BME280;74989;52.210;5.148;2024-01-25T06:01:59;102973.47;;;3.79;85.84
81680;BME280;74989;52.210;5.148;2024-01-25T06:04:26;102974.00;;;4.09;85.17
81680;BME280;74989;52.210;5.148;2024-01-25T06:06:54;102961.69;;;4.20;84.26
81680;BME280;74989;52.210;5.148;2024-01-25T06:09:21;102964.94;;;4.04;83.92
81680;BME280;74989;52.210;5.148;2024-01-25T06:11:47;102955.63;;;3.92;84.79
81680;BME280;74989;52.210;5.148;2024-01-25T06:14:14;102967.63;;;3.85;85.47
81680;BME280;74989;52.210;5.148;2024-01-25T06:16:41;102974.25;;;3.89;85.37
81680;BME280;74989;52.210;5.148;2024-01-25T06:19:08;102970.66;;;4.17;84.48
81680;BME280;74989;52.210;5.148;2024-01-25T06:21:36;102974.88;;;4.45;83.61
81680;BME280;74989;52.210;5.148;2024-01-25T06:24:05;102971.16;;;4.48;81.05
81680;BME280;74989;52.210;5.148;2024-01-25T06:26:32;102972.44;;;4.16;81.69
81680;BME280;74989;52.210;5.148;2024-01-25T06:28:58;102970.53;;;3.91;83.65
81680;BME280;74989;52.210;5.148;2024-01-25T06:31:25;102981.41;;;3.87;84.82
81680;BME280;74989;52.210;5.148;2024-01-25T06:33:52;102982.63;;;3.92;85.05
81680;BME280;74989;52.210;5.148;2024-01-25T06:36:19;102982.41;;;4.03;85.03
81680;BME280;74989;52.210;5.148;2024-01-25T06:38:46;102988.44;;;4.13;85.03
81680;BME280;74989;52.210;5.148;2024-01-25T06:41:14;102981.63;;;4.03;83.56
81680;BME280;74989;52.210;5.148;2024-01-25T06:43:41;102982.81;;;3.81;83.35
81680;BME280;74989;52.210;5.148;2024-01-25T06:46:08;102973.09;;;3.64;84.34
81680;BME280;74989;52.210;5.148;2024-01-25T06:48:35;102975.19;;;3.61;84.01
81680;BME280;74989;52.210;5.148;2024-01-25T06:51:02;102977.19;;;3.76;85.93
81680;BME280;74989;52.210;5.148;2024-01-25T06:53:28;102985.47;;;3.99;84.60
81680;BME280;74989;52.210;5.148;2024-01-25T06:55:55;102989.81;;;4.35;82.64
81680;BME280;74989;52.210;5.148;2024-01-25T06:58:23;102977.63;;;4.44;80.77
81680;BME280;74989;52.210;5.148;2024-01-25T07:00:50;102972.44;;;4.16;80.92
81680;BME280;74989;52.210;5.148;2024-01-25T07:03:18;102967.19;;;3.89;82.18
81680;BME280;74989;52.210;5.148;2024-01-25T07:05:45;102970.16;;;3.77;83.68
81680;BME280;74989;52.210;5.148;2024-01-25T07:08:11;102965.94;;;3.66;84.33
81680;BME280;74989;52.210;5.148;2024-01-25T07:10:39;102984.28;;;3.93;83.70
81680;BME280;74989;52.210;5.148;2024-01-25T07:13:05;102988.81;;;4.18;83.25
81680;BME280;74989;52.210;5.148;2024-01-25T07:15:36;102997.06;;;4.41;83.43
81680;BME280;74989;52.210;5.148;2024-01-25T07:18:04;102997.47;;;4.64;81.28
81680;BME280;74989;52.210;5.148;2024-01-25T07:20:31;102991.25;;;4.47;80.45
81680;BME280;74989;52.210;5.148;2024-01-25T07:22:57;102977.22;;;4.21;81.73
81680;BME280;74989;52.210;5.148;2024-01-25T07:25:24;102978.41;;;4.09;82.05
81680;BME280;74989;52.210;5.148;2024-01-25T07:27:51;102979.50;;;4.06;82.98
81680;BME280;74989;52.210;5.148;2024-01-25T07:30:17;102988.66;;;3.93;82.01
81680;BME280;74989;52.210;5.148;2024-01-25T07:32:47;102996.44;;;3.75;82.87
81680;BME280;74989;52.210;5.148;2024-01-25T07:35:15;102998.50;;;3.81;83.73
81680;BME280;74989;52.210;5.148;2024-01-25T07:37:42;102988.28;;;4.15;83.51
81680;BME280;74989;52.210;5.148;2024-01-25T07:40:09;102989.38;;;4.40;83.14
81680;BME280;74989;52.210;5.148;2024-01-25T07:42:36;102982.22;;;4.59;81.04
81680;BME280;74989;52.210;5.148;2024-01-25T07:45:04;102986.09;;;4.55;82.40
81680;BME280;74989;52.210;5.148;2024-01-25T07:47:32;102985.09;;;4.39;81.80
81680;BME280;74989;52.210;5.148;2024-01-25T07:50:00;102976.00;;;4.43;83.36
81680;BME280;74989;52.210;5.148;2024-01-25T07:52:27;102985.03;;;4.48;83.79
81680;BME280;74989;52.210;5.148;2024-01-25T07:54:54;102984.91;;;4.50;83.43
81680;BME280;74989;52.210;5.148;2024-01-25T07:57:20;102982.03;;;4.43;83.59
81680;BME280;74989;52.210;5.148;2024-01-25T07:59:47;102990.66;;;4.36;82.88
81680;BME280;74989;52.210;5.148;2024-01-25T08:02:13;102979.25;;;4.27;83.03
81680;BME280;74989;52.210;5.148;2024-01-25T08:04:42;102997.34;;;4.21;83.48
81680;BME280;74989;52.210;5.148;2024-01-25T08:07:10;102988.91;;;4.27;83.17
81680;BME280;74989;52.210;5.148;2024-01-25T08:09:36;102999.44;;;4.17;82.60
81680;BME280;74989;52.210;5.148;2024-01-25T08:12:04;102985.25;;;4.20;85.40
81680;BME280;74989;52.210;5.148;2024-01-25T08:14:31;102980.09;;;4.28;85.33
81680;BME280;74989;52.210;5.148;2024-01-25T08:16:58;102978.22;;;4.38;85.74
81680;BME280;74989;52.210;5.148;2024-01-25T08:19:25;102973.59;;;4.49;85.55
81680;BME280;74989;52.210;5.148;2024-01-25T08:21:51;102979.06;;;4.56;85.45
81680;BME280;74989;52.210;5.148;2024-01-25T08:24:19;102982.34;;;4.58;85.07
81680;BME280;74989;52.210;5.148;2024-01-25T08:26:46;102985.06;;;4.66;84.99
81680;BME280;74989;52.210;5.148;2024-01-25T08:29:13;102987.53;;;4.85;85.45
81680;BME280;74989;52.210;5.148;2024-01-25T08:31:39;102985.38;;;5.24;84.07
81680;BME280;74989;52.210;5.148;2024-01-25T08:34:06;102994.72;;;5.52;82.28
81680;BME280;74989;52.210;5.148;2024-01-25T08:36:33;102991.72;;;5.39;80.18
81680;BME280;74989;52.210;5.148;2024-01-25T08:39:00;102998.84;;;5.29;82.08
81680;BME280;74989;52.210;5.148;2024-01-25T08:41:28;102999.50;;;5.31;83.38
81680;BME280;74989;52.210;5.148;2024-01-25T08:43:54;103003.22;;;5.46;83.49
81680;BME280;74989;52.210;5.148;2024-01-25T08:46:21;102991.47;;;5.58;83.09
81680;BME280;74989;52.210;5.148;2024-01-25T08:48:48;102989.22;;;5.63;82.30
81680;BME280;74989;52.210;5.148;2024-01-25T08:51:14;102992.50;;;5.65;82.56
81680;BME280;74989;52.210;5.148;2024-01-25T08:53:41;102993.75;;;5.79;83.45
81680;BME280;74989;52.210;5.148;2024-01-25T08:56:08;102994.25;;;6.16;82.44
81680;BME280;74989;52.210;5.148;2024-01-25T08:58:36;102989.66;;;6.26;78.34
81680;BME280;74989;52.210;5.148;2024-01-25T09:01:03;103003.34;;;5.96;78.97
81680;BME280;74989;52.210;5.148;2024-01-25T09:03:30;103003.72;;;5.75;80.85
81680;BME280;74989;52.210;5.148;2024-01-25T09:05:56;103004.28;;;5.61;81.87
81680;BME280;74989;52.210;5.148;2024-01-25T09:08:23;102998.28;;;5.69;82.89
81680;BME280;74989;52.210;5.148;2024-01-25T09:10:50;103004.53;;;5.76;82.69
81680;BME280;74989;52.210;5.148;2024-01-25T09:13:16;102998.66;;;5.82;82.89
81680;BME280;74989;52.210;5.148;2024-01-25T09:15:43;103007.31;;;6.00;83.21
81680;BME280;74989;52.210;5.148;2024-01-25T09:18:12;103009.31;;;6.06;82.96
81680;BME280;74989;52.210;5.148;2024-01-25T09:20:39;102998.84;;;6.14;83.26
81680;BME280;74989;52.210;5.148;2024-01-25T09:23:06;103001.25;;;6.07;82.83
81680;BME280;74989;52.210;5.148;2024-01-25T09:25:33;103000.47;;;6.07;83.73
81680;BME280;74989;52.210;5.148;2024-01-25T09:28:00;102989.91;;;5.99;83.69
81680;BME280;74989;52.210;5.148;2024-01-25T09:30:27;102976.50;;;6.10;83.87
81680;BME280;74989;52.210;5.148;2024-01-25T09:32:55;102981.25;;;6.14;83.63
81680;BME280;74989;52.210;5.148;2024-01-25T09:35:22;102987.59;;;6.38;84.37
81680;BME280;74989;52.210;5.148;2024-01-25T09:37:49;102985.81;;;6.62;82.82
81680;BME280;74989;52.210;5.148;2024-01-25T09:40:18;102994.53;;;6.87;82.40
81680;BME280;74989;52.210;5.148;2024-01-25T09:42:46;103001.78;;;6.93;82.09
81680;BME280;74989;52.210;5.148;2024-01-25T09:45:16;102995.22;;;6.89;81.33
81680;BME280;74989;52.210;5.148;2024-01-25T09:47:43;102994.56;;;7.03;82.50
81680;BME280;74989;52.210;5.148;2024-01-25T09:50:12;102996.50;;;7.25;81.89
81680;BME280;74989;52.210;5.148;2024-01-25T09:52:39;102977.91;;;7.43;81.53
81680;BME280;74989;52.210;5.148;2024-01-25T09:55:07;102971.63;;;7.52;80.45
81680;BME280;74989;52.210;5.148;2024-01-25T09:57:36;102964.56;;;7.52;80.89
81680;BME280;74989;52.210;5.148;2024-01-25T10:00:03;102964.41;;;7.54;81.02
81680;BME280;74989;52.210;5.148;2024-01-25T10:02:32;102972.56;;;7.67;80.80
81680;BME280;74989;52.210;5.148;2024-01-25T10:04:59;102970.94;;;7.66;80.48
81680;BME280;74989;52.210;5.148;2024-01-25T10:07:41;102977.47;;;7.78;80.98
81680;BME280;74989;52.210;5.148;2024-01-25T10:10:08;102979.59;;;7.83;80.22
81680;BME280;74989;52.210;5.148;2024-01-25T10:12:36;102986.50;;;7.84;80.50
81680;BME280;74989;52.210;5.148;2024-01-25T10:15:06;102988.97;;;7.85;80.49
81680;BME280;74989;52.210;5.148;2024-01-25T10:17:33;102985.78;;;7.98;80.68
81680;BME280;74989;52.210;5.148;2024-01-25T10:20:00;102981.13;;;8.08;79.50
81680;BME280;74989;52.210;5.148;2024-01-25T10:22:27;102948.41;;;8.02;79.65
81680;BME280;74989;52.210;5.148;2024-01-25T10:24:55;102959.75;;;8.03;79.22
81680;BME280;74989;52.210;5.148;2024-01-25T10:27:22;102955.53;;;7.94;80.33
81680;BME280;74989;52.210;5.148;2024-01-25T10:29:49;102967.03;;;7.93;80.24
81680;BME280;74989;52.210;5.148;2024-01-25T10:32:16;102967.44;;;8.12;80.60
81680;BME280;74989;52.210;5.148;2024-01-25T10:34:43;102975.97;;;8.22;79.03
81680;BME280;74989;52.210;5.148;2024-01-25T10:37:13;102979.25;;;8.24;79.94
81680;BME280;74989;52.210;5.148;2024-01-25T10:39:41;102981.88;;;8.24;79.32
81680;BME280;74989;52.210;5.148;2024-01-25T10:42:09;102984.03;;;8.29;79.86
81680;BME280;74989;52.210;5.148;2024-01-25T10:44:36;102972.13;;;8.33;79.22
81680;BME280;74989;52.210;5.148;2024-01-25T10:47:03;102956.97;;;8.35;78.98
81680;BME280;74989;52.210;5.148;2024-01-25T10:49:32;102972.22;;;8.48;79.49
81680;BME280;74989;52.210;5.148;2024-01-25T10:51:59;102983.88;;;8.53;79.30
81680;BME280;74989;52.210;5.148;2024-01-25T10:54:26;102975.72;;;8.63;79.81
81680;BME280;74989;52.210;5.148;2024-01-25T10:56:53;102967.94;;;8.69;77.80
81680;BME280;74989;52.210;5.148;2024-01-25T10:59:21;102963.91;;;8.59;78.52
81680;BME280;74989;52.210;5.148;2024-01-25T11:01:50;102950.78;;;8.73;78.36
81680;BME280;74989;52.210;5.148;2024-01-25T11:04:18;102951.31;;;8.69;78.47
81680;BME280;74989;52.210;5.148;2024-01-25T11:06:46;102941.22;;;8.72;79.30
81680;BME280;74989;52.210;5.148;2024-01-25T11:09:17;102925.06;;;8.75;78.16
81680;BME280;74989;52.210;5.148;2024-01-25T11:11:46;102925.53;;;8.79;77.80
81680;BME280;74989;52.210;5.148;2024-01-25T11:14:13;102928.63;;;8.82;77.14
81680;BME280;74989;52.210;5.148;2024-01-25T11:16:43;102938.47;;;8.88;76.71
81680;BME280;74989;52.210;5.148;2024-01-25T11:19:16;102935.75;;;8.96;77.01
81680;BME280;74989;52.210;5.148;2024-01-25T11:21:43;102937.50;;;9.04;76.94
81680;BME280;74989;52.210;5.148;2024-01-25T11:24:14;102921.66;;;9.04;76.44
81680;BME280;74989;52.210;5.148;2024-01-25T11:26:43;102908.38;;;9.12;76.20
81680;BME280;74989;52.210;5.148;2024-01-25T11:29:10;102898.03;;;9.11;75.53
81680;BME280;74989;52.210;5.148;2024-01-25T11:31:37;102903.19;;;9.04;75.51
81680;BME280;74989;52.210;5.148;2024-01-25T11:34:05;102900.31;;;9.14;75.36
81680;BME280;74989;52.210;5.148;2024-01-25T11:36:31;102901.47;;;9.11;76.13
81680;BME280;74989;52.210;5.148;2024-01-25T11:38:58;102900.59;;;9.19;75.35
81680;BME280;74989;52.210;5.148;2024-01-25T11:41:25;102890.13;;;9.25;74.95
81680;BME280;74989;52.210;5.148;2024-01-25T11:43:52;102881.38;;;9.25;75.16
81680;BME280;74989;52.210;5.148;2024-01-25T11:46:19;102872.38;;;9.19;75.71
81680;BME280;74989;52.210;5.148;2024-01-25T11:48:46;102861.19;;;9.17;75.79
81680;BME280;74989;52.210;5.148;2024-01-25T11:51:14;102859.16;;;9.34;75.13
81680;BME280;74989;52.210;5.148;2024-01-25T11:53:40;102846.34;;;9.31;75.55
81680;BME280;74989;52.210;5.148;2024-01-25T11:56:10;102848.25;;;9.37;74.84
81680;BME280;74989;52.210;5.148;2024-01-25T11:58:37;102846.88;;;9.41;74.81
81680;BME280;74989;52.210;5.148;2024-01-25T12:01:05;102850.88;;;9.51;74.78
81680;BME280;74989;52.210;5.148;2024-01-25T12:03:34;102830.13;;;9.48;75.09
81680;BME280;74989;52.210;5.148;2024-01-25T12:06:02;102829.31;;;9.48;74.75
81680;BME280;74989;52.210;5.148;2024-01-25T12:08:32;102822.56;;;9.60;74.44
81680;BME280;74989;52.210;5.148;2024-01-25T12:11:03;102828.16;;;9.72;74.40
81680;BME280;74989;52.210;5.148;2024-01-25T12:13:32;102830.84;;;9.93;73.38
81680;BME280;74989;52.210;5.148;2024-01-25T12:16:00;102828.22;;;10.14;72.38
81680;BME280;74989;52.210;5.148;2024-01-25T12:18:28;102824.81;;;10.20;72.58
81680;BME280;74989;52.210;5.148;2024-01-25T12:20:57;102827.63;;;10.40;72.19
81680;BME280;74989;52.210;5.148;2024-01-25T12:23:31;102821.13;;;10.63;70.58
81680;BME280;74989;52.210;5.148;2024-01-25T12:26:03;102826.97;;;10.59;71.21
81680;BME280;74989;52.210;5.148;2024-01-25T12:28:30;102811.16;;;10.38;70.97
81680;BME280;74989;52.210;5.148;2024-01-25T12:30:57;102812.56;;;10.33;70.83
81680;BME280;74989;52.210;5.148;2024-01-25T12:33:24;102815.28;;;10.19;70.69
81680;BME280;74989;52.210;5.148;2024-01-25T12:35:51;102811.91;;;10.10;70.33
81680;BME280;74989;52.210;5.148;2024-01-25T12:38:19;102811.75;;;10.12;70.54
81680;BME280;74989;52.210;5.148;2024-01-25T12:40:48;102804.31;;;10.01;70.88
81680;BME280;74989;52.210;5.148;2024-01-25T12:43:15;102801.72;;;10.07;70.60
81680;BME280;74989;52.210;5.148;2024-01-25T12:45:42;102796.75;;;9.98;70.42
81680;BME280;74989;52.210;5.148;2024-01-25T12:48:09;102797.81;;;9.82;70.88
81680;BME280;74989;52.210;5.148;2024-01-25T12:50:36;102792.72;;;9.81;71.46
81680;BME280;74989;52.210;5.148;2024-01-25T12:53:04;102794.41;;;9.67;72.53
81680;BME280;74989;52.210;5.148;2024-01-25T12:55:32;102780.00;;;9.69;72.79
81680;BME280;74989;52.210;5.148;2024-01-25T12:58:01;102780.44;;;9.73;72.81
81680;BME280;74989;52.210;5.148;2024-01-25T13:00:28;102774.94;;;9.68;72.24